sensor_id;sensor_type;location;lat;lon;timestamp;P1;durP1;ratioP1;P2;durP2;ratioP2
78871;SDS011;68247;43.514;1.502;2024-01-11T00:02:04;37.67;;;17.83;;
78871;SDS011;68247;43.514;1.502;2024-01-11T00:04:29;39.33;;;17.87;;
78871;SDS011;68247;43.514;1.502;2024-01-11T00:06:55;43.03;;;18.23;;
78871;SDS011;68247;43.514;1.502;2024-01-11T00:09:20;36.50;;;18.13;;
78871;SDS011;68247;43.514;1.502;2024-01-11T00:11:45;37.60;;;18.47;;
78871;SDS011;68247;43.514;1.502;2024-01-11T00:14:11;36.77;;;17.93;;
78871;SDS011;68247;43.514;1.502;2024-01-11T00:16:36;41.13;;;18.43;;
78871;SDS011;68247;43.514;1.502;2024-01-11T00:19:02;33.87;;;17.57;;
78871;SDS011;68247;43.514;1.502;2024-01-11T00:21:27;36.88;;;17.42;;
78871;SDS011;68247;43.514;1.502;2024-01-11T00:23:52;40.80;;;18.20;;
78871;SDS011;68247;43.514;1.502;2024-01-11T00:26:18;39.03;;;19.00;;
78871;SDS011;68247;43.514;1.502;2024-01-11T00:28:43;39.40;;;18.38;;
78871;SDS011;68247;43.514;1.502;2024-01-11T00:31:10;35.97;;;15.27;;
78871;SDS011;68247;43.514;1.502;2024-01-11T00:33:35;38.55;;;18.13;;
78871;SDS011;68247;43.514;1.502;2024-01-11T00:36:01;37.73;;;18.10;;
78871;SDS011;68247;43.514;1.502;2024-01-11T00:38:26;36.97;;;18.40;;
78871;SDS011;68247;43.514;1.502;2024-01-11T00:40:52;41.78;;;18.67;;
78871;SDS011;68247;43.514;1.502;2024-01-11T00:43:17;31.30;;;14.77;;
78871;SDS011;68247;43.514;1.502;2024-01-11T00:45:43;37.53;;;17.37;;
78871;SDS011;68247;43.514;1.502;2024-01-11T00:48:11;41.40;;;18.27;;
78871;SDS011;68247;43.514;1.502;2024-01-11T00:50:36;37.53;;;17.63;;
78871;SDS011;68247;43.514;1.502;2024-01-11T00:53:02;38.33;;;16.55;;
78871;SDS011;68247;43.514;1.502;2024-01-11T00:55:28;38.93;;;17.27;;
78871;SDS011;68247;43.514;1.502;2024-01-11T00:57:53;31.73;;;14.98;;
78871;SDS011;68247;43.514;1.502;2024-01-11T01:00:19;37.43;;;16.17;;
78871;SDS011;68247;43.514;1.502;2024-01-11T01:02:44;41.43;;;19.20;;
78871;SDS011;68247;43.514;1.502;2024-01-11T01:05:10;40.00;;;18.45;;
78871;SDS011;68247;43.514;1.502;2024-01-11T01:07:35;49.10;;;18.83;;
78871;SDS011;68247;43.514;1.502;2024-01-11T01:10:01;39.20;;;17.47;;
78871;SDS011;68247;43.514;1.502;2024-01-11T01:12:27;34.38;;;15.18;;
78871;SDS011;68247;43.514;1.502;2024-01-11T01:14:53;39.13;;;17.15;;
78871;SDS011;68247;43.514;1.502;2024-01-11T01:17:19;41.17;;;18.13;;
78871;SDS011;68247;43.514;1.502;2024-01-11T01:19:44;42.70;;;19.20;;
78871;SDS011;68247;43.514;1.502;2024-01-11T01:22:10;32.10;;;14.93;;
78871;SDS011;68247;43.514;1.502;2024-01-11T01:24:35;40.90;;;16.95;;
78871;SDS011;68247;43.514;1.502;2024-01-11T01:27:01;33.95;;;15.05;;
78871;SDS011;68247;43.514;1.502;2024-01-11T01:29:26;38.53;;;16.27;;
78871;SDS011;68247;43.514;1.502;2024-01-11T01:31:52;31.23;;;14.13;;
78871;SDS011;68247;43.514;1.502;2024-01-11T01:34:17;41.00;;;17.37;;
78871;SDS011;68247;43.514;1.502;2024-01-11T01:36:43;38.22;;;16.52;;
78871;SDS011;68247;43.514;1.502;2024-01-11T01:39:09;37.23;;;16.60;;
78871;SDS011;68247;43.514;1.502;2024-01-11T01:41:34;42.67;;;16.93;;
78871;SDS011;68247;43.514;1.502;2024-01-11T01:44:00;34.97;;;15.43;;
78871;SDS011;68247;43.514;1.502;2024-01-11T01:46:25;42.33;;;17.77;;
78871;SDS011;68247;43.514;1.502;2024-01-11T01:48:54;36.70;;;16.23;;
78871;SDS011;68247;43.514;1.502;2024-01-11T01:51:22;39.33;;;16.85;;
78871;SDS011;68247;43.514;1.502;2024-01-11T01:53:50;39.72;;;16.85;;
78871;SDS011;68247;43.514;1.502;2024-01-11T01:56:18;39.10;;;17.13;;
78871;SDS011;68247;43.514;1.502;2024-01-11T01:58:44;35.53;;;16.55;;
78871;SDS011;68247;43.514;1.502;2024-01-11T02:01:10;39.23;;;16.60;;
78871;SDS011;68247;43.514;1.502;2024-01-11T02:03:36;41.15;;;17.00;;
78871;SDS011;68247;43.514;1.502;2024-01-11T02:06:03;35.25;;;15.20;;
78871;SDS011;68247;43.514;1.502;2024-01-11T02:08:30;35.17;;;16.05;;
78871;SDS011;68247;43.514;1.502;2024-01-11T02:10:57;41.67;;;16.33;;
78871;SDS011;68247;43.514;1.502;2024-01-11T02:13:24;38.07;;;15.80;;
78871;SDS011;68247;43.514;1.502;2024-01-11T02:15:49;37.42;;;15.80;;
78871;SDS011;68247;43.514;1.502;2024-01-11T02:18:14;35.30;;;16.13;;
78871;SDS011;68247;43.514;1.502;2024-01-11T02:20:40;37.20;;;16.43;;
78871;SDS011;68247;43.514;1.502;2024-01-11T02:23:06;34.07;;;16.43;;
78871;SDS011;68247;43.514;1.502;2024-01-11T02:25:34;33.42;;;15.55;;
78871;SDS011;68247;43.514;1.502;2024-01-11T02:27:59;33.47;;;15.77;;
78871;SDS011;68247;43.514;1.502;2024-01-11T02:30:25;35.13;;;16.10;;
78871;SDS011;68247;43.514;1.502;2024-01-11T02:32:50;34.72;;;15.50;;
78871;SDS011;68247;43.514;1.502;2024-01-11T02:35:16;30.37;;;14.37;;
78871;SDS011;68247;43.514;1.502;2024-01-11T02:37:42;30.25;;;14.15;;
78871;SDS011;68247;43.514;1.502;2024-01-11T02:40:08;36.50;;;15.43;;
78871;SDS011;68247;43.514;1.502;2024-01-11T02:42:34;38.20;;;15.90;;
78871;SDS011;68247;43.514;1.502;2024-01-11T02:45:00;35.28;;;16.00;;
78871;SDS011;68247;43.514;1.502;2024-01-11T02:47:28;33.25;;;15.57;;
78871;SDS011;68247;43.514;1.502;2024-01-11T02:49:53;34.17;;;15.63;;
78871;SDS011;68247;43.514;1.502;2024-01-11T02:52:18;35.80;;;16.40;;
78871;SDS011;68247;43.514;1.502;2024-01-11T02:54:44;41.73;;;17.50;;
78871;SDS011;68247;43.514;1.502;2024-01-11T02:57:09;39.97;;;17.47;;
78871;SDS011;68247;43.514;1.502;2024-01-11T02:59:35;42.58;;;17.58;;
78871;SDS011;68247;43.514;1.502;2024-01-11T03:02:01;41.03;;;17.77;;
78871;SDS011;68247;43.514;1.502;2024-01-11T03:04:26;46.78;;;18.48;;
78871;SDS011;68247;43.514;1.502;2024-01-11T03:06:52;43.20;;;17.57;;
78871;SDS011;68247;43.514;1.502;2024-01-11T03:09:17;43.30;;;17.33;;
78871;SDS011;68247;43.514;1.502;2024-01-11T03:11:42;45.90;;;17.67;;
78871;SDS011;68247;43.514;1.502;2024-01-11T03:14:08;42.43;;;18.17;;
78871;SDS011;68247;43.514;1.502;2024-01-11T03:16:33;42.80;;;18.60;;
78871;SDS011;68247;43.514;1.502;2024-01-11T03:18:59;44.00;;;18.23;;
78871;SDS011;68247;43.514;1.502;2024-01-11T03:21:24;46.40;;;19.23;;
78871;SDS011;68247;43.514;1.502;2024-01-11T03:23:50;44.55;;;18.77;;
78871;SDS011;68247;43.514;1.502;2024-01-11T03:26:16;48.00;;;19.17;;
78871;SDS011;68247;43.514;1.502;2024-01-11T03:28:42;46.78;;;19.30;;
78871;SDS011;68247;43.514;1.502;2024-01-11T03:31:11;45.30;;;18.47;;
78871;SDS011;68247;43.514;1.502;2024-01-11T03:33:37;45.53;;;18.33;;
78871;SDS011;68247;43.514;1.502;2024-01-11T03:36:09;55.10;;;19.63;;
78871;SDS011;68247;43.514;1.502;2024-01-11T03:38:35;50.58;;;18.42;;
78871;SDS011;68247;43.514;1.502;2024-01-11T03:41:00;47.30;;;18.70;;
78871;SDS011;68247;43.514;1.502;2024-01-11T03:43:26;50.83;;;20.00;;
78871;SDS011;68247;43.514;1.502;2024-01-11T03:45:51;47.63;;;20.40;;
78871;SDS011;68247;43.514;1.502;2024-01-11T03:48:17;45.53;;;19.07;;
78871;SDS011;68247;43.514;1.502;2024-01-11T03:50:42;44.20;;;17.92;;
78871;SDS011;68247;43.514;1.502;2024-01-11T03:53:07;51.00;;;18.93;;
78871;SDS011;68247;43.514;1.502;2024-01-11T03:55:33;46.20;;;18.87;;
78871;SDS011;68247;43.514;1.502;2024-01-11T03:57:58;48.80;;;18.63;;
78871;SDS011;68247;43.514;1.502;2024-01-11T04:00:24;46.70;;;18.60;;
78871;SDS011;68247;43.514;1.502;2024-01-11T04:02:49;48.50;;;18.55;;
78871;SDS011;68247;43.514;1.502;2024-01-11T04:05:15;49.67;;;18.40;;
78871;SDS011;68247;43.514;1.502;2024-01-11T04:07:41;46.03;;;18.50;;
78871;SDS011;68247;43.514;1.502;2024-01-11T04:10:06;47.47;;;17.77;;
78871;SDS011;68247;43.514;1.502;2024-01-11T04:12:34;40.72;;;16.50;;
78871;SDS011;68247;43.514;1.502;2024-01-11T04:15:00;50.28;;;18.80;;
78871;SDS011;68247;43.514;1.502;2024-01-11T04:17:26;45.13;;;17.87;;
78871;SDS011;68247;43.514;1.502;2024-01-11T04:19:51;43.20;;;16.67;;
78871;SDS011;68247;43.514;1.502;2024-01-11T04:22:16;38.63;;;15.87;;
78871;SDS011;68247;43.514;1.502;2024-01-11T04:24:42;44.80;;;18.10;;
78871;SDS011;68247;43.514;1.502;2024-01-11T04:27:08;44.45;;;17.88;;
78871;SDS011;68247;43.514;1.502;2024-01-11T04:29:33;48.35;;;17.98;;
78871;SDS011;68247;43.514;1.502;2024-01-11T04:32:00;46.90;;;18.40;;
78871;SDS011;68247;43.514;1.502;2024-01-11T04:34:26;42.47;;;16.60;;
78871;SDS011;68247;43.514;1.502;2024-01-11T04:36:52;43.63;;;17.13;;
78871;SDS011;68247;43.514;1.502;2024-01-11T04:39:17;39.50;;;16.83;;
78871;SDS011;68247;43.514;1.502;2024-01-11T04:41:42;38.10;;;15.63;;
78871;SDS011;68247;43.514;1.502;2024-01-11T04:44:08;36.57;;;15.07;;
78871;SDS011;68247;43.514;1.502;2024-01-11T04:46:34;36.90;;;15.33;;
78871;SDS011;68247;43.514;1.502;2024-01-11T04:48:59;40.35;;;16.95;;
78871;SDS011;68247;43.514;1.502;2024-01-11T04:51:25;37.93;;;14.90;;
78871;SDS011;68247;43.514;1.502;2024-01-11T04:53:50;31.10;;;13.38;;
78871;SDS011;68247;43.514;1.502;2024-01-11T04:56:16;33.23;;;13.90;;
78871;SDS011;68247;43.514;1.502;2024-01-11T04:58:43;25.95;;;12.93;;
78871;SDS011;68247;43.514;1.502;2024-01-11T05:01:15;27.73;;;12.55;;
78871;SDS011;68247;43.514;1.502;2024-01-11T05:03:42;30.95;;;13.15;;
78871;SDS011;68247;43.514;1.502;2024-01-11T05:06:08;31.67;;;13.32;;
78871;SDS011;68247;43.514;1.502;2024-01-11T05:08:33;29.90;;;13.17;;
78871;SDS011;68247;43.514;1.502;2024-01-11T05:10:58;29.83;;;12.77;;
78871;SDS011;68247;43.514;1.502;2024-01-11T05:13:24;25.02;;;11.95;;
78871;SDS011;68247;43.514;1.502;2024-01-11T05:15:49;28.23;;;13.20;;
78871;SDS011;68247;43.514;1.502;2024-01-11T05:18:15;28.43;;;13.07;;
78871;SDS011;68247;43.514;1.502;2024-01-11T05:20:40;29.45;;;12.65;;
78871;SDS011;68247;43.514;1.502;2024-01-11T05:23:06;29.07;;;12.33;;
78871;SDS011;68247;43.514;1.502;2024-01-11T05:25:31;27.57;;;12.57;;
78871;SDS011;68247;43.514;1.502;2024-01-11T05:28:03;31.20;;;12.55;;
78871;SDS011;68247;43.514;1.502;2024-01-11T05:30:29;30.90;;;13.20;;
78871;SDS011;68247;43.514;1.502;2024-01-11T05:32:54;28.70;;;12.63;;
78871;SDS011;68247;43.514;1.502;2024-01-11T05:35:20;28.92;;;12.43;;
78871;SDS011;68247;43.514;1.502;2024-01-11T05:37:47;24.97;;;11.93;;
78871;SDS011;68247;43.514;1.502;2024-01-11T05:40:12;30.45;;;12.38;;
78871;SDS011;68247;43.514;1.502;2024-01-11T05:42:38;23.25;;;10.80;;
78871;SDS011;68247;43.514;1.502;2024-01-11T05:45:04;26.63;;;11.82;;
78871;SDS011;68247;43.514;1.502;2024-01-11T05:47:30;25.33;;;12.90;;
78871;SDS011;68247;43.514;1.502;2024-01-11T05:49:55;28.70;;;12.20;;
78871;SDS011;68247;43.514;1.502;2024-01-11T05:52:21;29.00;;;11.83;;
78871;SDS011;68247;43.514;1.502;2024-01-11T05:54:46;24.33;;;11.33;;
78871;SDS011;68247;43.514;1.502;2024-01-11T05:57:12;28.80;;;13.77;;
78871;SDS011;68247;43.514;1.502;2024-01-11T05:59:37;25.90;;;12.13;;
78871;SDS011;68247;43.514;1.502;2024-01-11T06:02:03;27.07;;;12.67;;
78871;SDS011;68247;43.514;1.502;2024-01-11T06:04:28;26.50;;;12.40;;
78871;SDS011;68247;43.514;1.502;2024-01-11T06:06:54;25.83;;;12.52;;
78871;SDS011;68247;43.514;1.502;2024-01-11T06:09:20;29.20;;;13.37;;
78871;SDS011;68247;43.514;1.502;2024-01-11T06:11:45;28.93;;;13.37;;
78871;SDS011;68247;43.514;1.502;2024-01-11T06:14:11;24.40;;;12.17;;
78871;SDS011;68247;43.514;1.502;2024-01-11T06:16:36;27.02;;;12.98;;
78871;SDS011;68247;43.514;1.502;2024-01-11T06:19:02;26.50;;;13.27;;
78871;SDS011;68247;43.514;1.502;2024-01-11T06:21:27;29.80;;;13.33;;
78871;SDS011;68247;43.514;1.502;2024-01-11T06:23:53;30.20;;;14.07;;
78871;SDS011;68247;43.514;1.502;2024-01-11T06:26:18;29.67;;;14.00;;
78871;SDS011;68247;43.514;1.502;2024-01-11T06:28:44;34.63;;;14.13;;
78871;SDS011;68247;43.514;1.502;2024-01-11T06:31:09;31.50;;;13.45;;
78871;SDS011;68247;43.514;1.502;2024-01-11T06:33:35;28.75;;;13.45;;
78871;SDS011;68247;43.514;1.502;2024-01-11T06:36:02;29.42;;;14.13;;
78871;SDS011;68247;43.514;1.502;2024-01-11T06:38:31;33.80;;;14.10;;
78871;SDS011;68247;43.514;1.502;2024-01-11T06:40:56;29.57;;;14.37;;
78871;SDS011;68247;43.514;1.502;2024-01-11T06:43:22;27.42;;;13.18;;
78871;SDS011;68247;43.514;1.502;2024-01-11T06:45:47;30.10;;;14.03;;
78871;SDS011;68247;43.514;1.502;2024-01-11T06:48:13;28.53;;;13.30;;
78871;SDS011;68247;43.514;1.502;2024-01-11T06:50:38;31.80;;;12.63;;
78871;SDS011;68247;43.514;1.502;2024-01-11T06:53:03;25.60;;;12.57;;
78871;SDS011;68247;43.514;1.502;2024-01-11T06:55:29;26.30;;;12.88;;
78871;SDS011;68247;43.514;1.502;2024-01-11T06:57:55;30.77;;;13.70;;
78871;SDS011;68247;43.514;1.502;2024-01-11T07:00:20;28.47;;;13.30;;
78871;SDS011;68247;43.514;1.502;2024-01-11T07:02:46;32.50;;;14.20;;
78871;SDS011;68247;43.514;1.502;2024-01-11T07:05:12;31.87;;;14.13;;
78871;SDS011;68247;43.514;1.502;2024-01-11T07:07:37;28.88;;;14.13;;
78871;SDS011;68247;43.514;1.502;2024-01-11T07:10:03;34.70;;;15.90;;
78871;SDS011;68247;43.514;1.502;2024-01-11T07:12:30;35.55;;;15.88;;
78871;SDS011;68247;43.514;1.502;2024-01-11T07:14:56;32.43;;;15.53;;
78871;SDS011;68247;43.514;1.502;2024-01-11T07:17:21;30.60;;;13.63;;
78871;SDS011;68247;43.514;1.502;2024-01-11T07:19:47;28.63;;;13.25;;
78871;SDS011;68247;43.514;1.502;2024-01-11T07:22:13;27.23;;;12.60;;
78871;SDS011;68247;43.514;1.502;2024-01-11T07:24:38;26.87;;;13.03;;
78871;SDS011;68247;43.514;1.502;2024-01-11T07:27:07;30.23;;;13.13;;
78871;SDS011;68247;43.514;1.502;2024-01-11T07:29:32;28.33;;;12.60;;
78871;SDS011;68247;43.514;1.502;2024-01-11T07:31:59;29.77;;;13.25;;
78871;SDS011;68247;43.514;1.502;2024-01-11T07:34:24;30.92;;;14.45;;
78871;SDS011;68247;43.514;1.502;2024-01-11T07:36:51;30.97;;;14.23;;
78871;SDS011;68247;43.514;1.502;2024-01-11T07:39:17;33.97;;;15.15;;
78871;SDS011;68247;43.514;1.502;2024-01-11T07:41:42;41.40;;;17.00;;
78871;SDS011;68247;43.514;1.502;2024-01-11T07:44:08;43.43;;;17.17;;
78871;SDS011;68247;43.514;1.502;2024-01-11T07:46:33;41.73;;;19.00;;
78871;SDS011;68247;43.514;1.502;2024-01-11T07:48:59;48.25;;;20.40;;
78871;SDS011;68247;43.514;1.502;2024-01-11T07:51:24;39.53;;;18.33;;
78871;SDS011;68247;43.514;1.502;2024-01-11T07:53:50;36.07;;;16.10;;
78871;SDS011;68247;43.514;1.502;2024-01-11T07:56:15;36.53;;;16.80;;
78871;SDS011;68247;43.514;1.502;2024-01-11T07:58:42;38.03;;;15.05;;
78871;SDS011;68247;43.514;1.502;2024-01-11T08:01:07;34.03;;;15.95;;
78871;SDS011;68247;43.514;1.502;2024-01-11T08:03:33;37.93;;;16.90;;
78871;SDS011;68247;43.514;1.502;2024-01-11T08:06:00;37.03;;;17.00;;
78871;SDS011;68247;43.514;1.502;2024-01-11T08:08:25;37.35;;;17.75;;
78871;SDS011;68247;43.514;1.502;2024-01-11T08:10:51;38.13;;;16.90;;
78871;SDS011;68247;43.514;1.502;2024-01-11T08:13:16;40.63;;;17.63;;
78871;SDS011;68247;43.514;1.502;2024-01-11T08:15:43;36.70;;;16.50;;
78871;SDS011;68247;43.514;1.502;2024-01-11T08:18:08;43.22;;;18.50;;
78871;SDS011;68247;43.514;1.502;2024-01-11T08:20:34;38.87;;;15.87;;
78871;SDS011;68247;43.514;1.502;2024-01-11T08:22:59;40.87;;;16.57;;
78871;SDS011;68247;43.514;1.502;2024-01-11T08:25:25;43.30;;;19.07;;
78871;SDS011;68247;43.514;1.502;2024-01-11T08:27:50;42.80;;;20.08;;
78871;SDS011;68247;43.514;1.502;2024-01-11T08:30:15;44.50;;;20.03;;
78871;SDS011;68247;43.514;1.502;2024-01-11T08:32:41;47.90;;;21.17;;
78871;SDS011;68247;43.514;1.502;2024-01-11T08:35:09;48.17;;;20.40;;
78871;SDS011;68247;43.514;1.502;2024-01-11T08:37:36;46.55;;;19.02;;
78871;SDS011;68247;43.514;1.502;2024-01-11T08:40:02;39.67;;;17.67;;
78871;SDS011;68247;43.514;1.502;2024-01-11T08:42:29;45.53;;;19.90;;
78871;SDS011;68247;43.514;1.502;2024-01-11T08:44:56;47.28;;;19.80;;
78871;SDS011;68247;43.514;1.502;2024-01-11T08:47:21;77.17;;;22.83;;
78871;SDS011;68247;43.514;1.502;2024-01-11T08:49:46;63.10;;;22.10;;
78871;SDS011;68247;43.514;1.502;2024-01-11T08:52:12;68.20;;;22.03;;
78871;SDS011;68247;43.514;1.502;2024-01-11T08:54:37;58.57;;;19.17;;
78871;SDS011;68247;43.514;1.502;2024-01-11T08:57:03;42.83;;;18.55;;
78871;SDS011;68247;43.514;1.502;2024-01-11T08:59:28;39.10;;;16.90;;
78871;SDS011;68247;43.514;1.502;2024-01-11T09:01:54;35.50;;;15.37;;
78871;SDS011;68247;43.514;1.502;2024-01-11T09:04:19;33.13;;;16.95;;
78871;SDS011;68247;43.514;1.502;2024-01-11T09:06:44;38.35;;;18.20;;
78871;SDS011;68247;43.514;1.502;2024-01-11T09:09:10;39.13;;;15.90;;
78871;SDS011;68247;43.514;1.502;2024-01-11T09:11:38;37.47;;;16.40;;
78871;SDS011;68247;43.514;1.502;2024-01-11T09:14:04;29.97;;;15.13;;
78871;SDS011;68247;43.514;1.502;2024-01-11T09:16:30;29.33;;;13.82;;
78871;SDS011;68247;43.514;1.502;2024-01-11T09:18:56;35.07;;;15.27;;
78871;SDS011;68247;43.514;1.502;2024-01-11T09:21:22;32.45;;;14.57;;
78871;SDS011;68247;43.514;1.502;2024-01-11T09:23:47;30.97;;;13.80;;
78871;SDS011;68247;43.514;1.502;2024-01-11T09:26:12;22.37;;;11.80;;
78871;SDS011;68247;43.514;1.502;2024-01-11T09:28:38;24.60;;;11.83;;
78871;SDS011;68247;43.514;1.502;2024-01-11T09:31:03;25.98;;;12.50;;
78871;SDS011;68247;43.514;1.502;2024-01-11T09:33:29;23.00;;;11.77;;
78871;SDS011;68247;43.514;1.502;2024-01-11T09:35:54;20.40;;;10.47;;
78871;SDS011;68247;43.514;1.502;2024-01-11T09:38:21;20.73;;;9.60;;
78871;SDS011;68247;43.514;1.502;2024-01-11T09:40:48;17.88;;;9.77;;
78871;SDS011;68247;43.514;1.502;2024-01-11T09:43:23;18.13;;;10.32;;
78871;SDS011;68247;43.514;1.502;2024-01-11T09:45:49;20.08;;;9.82;;
78871;SDS011;68247;43.514;1.502;2024-01-11T09:48:14;17.10;;;8.52;;
78871;SDS011;68247;43.514;1.502;2024-01-11T09:50:40;17.48;;;9.18;;
78871;SDS011;68247;43.514;1.502;2024-01-11T09:53:05;16.50;;;8.27;;
78871;SDS011;68247;43.514;1.502;2024-01-11T09:55:32;15.57;;;7.68;;
78871;SDS011;68247;43.514;1.502;2024-01-11T09:57:59;15.05;;;8.27;;
78871;SDS011;68247;43.514;1.502;2024-01-11T10:00:25;15.27;;;8.02;;
78871;SDS011;68247;43.514;1.502;2024-01-11T10:02:52;14.70;;;8.48;;
78871;SDS011;68247;43.514;1.502;2024-01-11T10:05:17;16.20;;;8.75;;
78871;SDS011;68247;43.514;1.502;2024-01-11T10:07:43;14.75;;;8.50;;
78871;SDS011;68247;43.514;1.502;2024-01-11T10:10:10;14.82;;;8.45;;
78871;SDS011;68247;43.514;1.502;2024-01-11T10:12:36;15.68;;;8.75;;
78871;SDS011;68247;43.514;1.502;2024-01-11T10:15:05;15.85;;;8.38;;
78871;SDS011;68247;43.514;1.502;2024-01-11T10:17:41;14.18;;;8.23;;
78871;SDS011;68247;43.514;1.502;2024-01-11T10:20:11;16.30;;;8.68;;
78871;SDS011;68247;43.514;1.502;2024-01-11T10:22:39;16.52;;;8.68;;
78871;SDS011;68247;43.514;1.502;2024-01-11T10:25:10;15.02;;;8.27;;
78871;SDS011;68247;43.514;1.502;2024-01-11T10:27:37;14.02;;;7.95;;
78871;SDS011;68247;43.514;1.502;2024-01-11T10:30:03;15.25;;;7.88;;
78871;SDS011;68247;43.514;1.502;2024-01-11T10:32:31;14.95;;;7.32;;
78871;SDS011;68247;43.514;1.502;2024-01-11T10:34:59;14.63;;;8.43;;
78871;SDS011;68247;43.514;1.502;2024-01-11T10:37:26;16.17;;;7.97;;
78871;SDS011;68247;43.514;1.502;2024-01-11T10:39:52;15.07;;;9.00;;
78871;SDS011;68247;43.514;1.502;2024-01-11T10:42:18;15.93;;;7.70;;
78871;SDS011;68247;43.514;1.502;2024-01-11T10:44:46;16.65;;;8.57;;
78871;SDS011;68247;43.514;1.502;2024-01-11T10:47:12;15.48;;;8.48;;
78871;SDS011;68247;43.514;1.502;2024-01-11T10:49:39;15.85;;;8.57;;
78871;SDS011;68247;43.514;1.502;2024-01-11T10:52:06;16.00;;;7.90;;
78871;SDS011;68247;43.514;1.502;2024-01-11T10:54:33;14.30;;;7.70;;
78871;SDS011;68247;43.514;1.502;2024-01-11T10:56:59;15.75;;;9.05;;
78871;SDS011;68247;43.514;1.502;2024-01-11T10:59:26;13.65;;;7.40;;
78871;SDS011;68247;43.514;1.502;2024-01-11T11:01:52;16.05;;;8.52;;
78871;SDS011;68247;43.514;1.502;2024-01-11T11:04:20;16.43;;;8.50;;
78871;SDS011;68247;43.514;1.502;2024-01-11T11:06:46;13.88;;;7.63;;
78871;SDS011;68247;43.514;1.502;2024-01-11T11:09:11;13.13;;;7.33;;
78871;SDS011;68247;43.514;1.502;2024-01-11T11:11:39;16.23;;;8.27;;
78871;SDS011;68247;43.514;1.502;2024-01-11T11:14:04;14.85;;;8.23;;
78871;SDS011;68247;43.514;1.502;2024-01-11T11:16:30;17.20;;;8.47;;
78871;SDS011;68247;43.514;1.502;2024-01-11T11:18:55;14.67;;;8.57;;
78871;SDS011;68247;43.514;1.502;2024-01-11T11:21:21;17.15;;;9.13;;
78871;SDS011;68247;43.514;1.502;2024-01-11T11:23:47;13.93;;;8.23;;
78871;SDS011;68247;43.514;1.502;2024-01-11T11:26:14;15.00;;;8.43;;
78871;SDS011;68247;43.514;1.502;2024-01-11T11:28:42;17.52;;;8.10;;
78871;SDS011;68247;43.514;1.502;2024-01-11T11:31:07;13.97;;;8.03;;
78871;SDS011;68247;43.514;1.502;2024-01-11T11:33:36;15.27;;;8.10;;
78871;SDS011;68247;43.514;1.502;2024-01-11T11:36:02;14.53;;;8.17;;
78871;SDS011;68247;43.514;1.502;2024-01-11T11:38:28;15.20;;;7.93;;
78871;SDS011;68247;43.514;1.502;2024-01-11T11:40:56;14.85;;;8.30;;
78871;SDS011;68247;43.514;1.502;2024-01-11T11:43:28;17.37;;;9.07;;
78871;SDS011;68247;43.514;1.502;2024-01-11T11:45:55;16.58;;;8.90;;
78871;SDS011;68247;43.514;1.502;2024-01-11T11:51:17;13.77;;;8.52;;
78871;SDS011;68247;43.514;1.502;2024-01-11T11:53:45;14.73;;;8.48;;
78871;SDS011;68247;43.514;1.502;2024-01-11T11:56:11;14.10;;;8.33;;
78871;SDS011;68247;43.514;1.502;2024-01-11T11:58:37;14.20;;;8.60;;
78871;SDS011;68247;43.514;1.502;2024-01-11T12:01:07;15.15;;;8.45;;
78871;SDS011;68247;43.514;1.502;2024-01-11T12:03:34;16.40;;;9.10;;
78871;SDS011;68247;43.514;1.502;2024-01-11T12:06:06;18.23;;;9.32;;
78871;SDS011;68247;43.514;1.502;2024-01-11T12:08:35;16.37;;;8.90;;
78871;SDS011;68247;43.514;1.502;2024-01-11T12:11:01;16.42;;;9.05;;
78871;SDS011;68247;43.514;1.502;2024-01-11T12:13:28;19.17;;;10.13;;
78871;SDS011;68247;43.514;1.502;2024-01-11T12:15:54;17.30;;;9.45;;
78871;SDS011;68247;43.514;1.502;2024-01-11T12:18:20;18.25;;;9.57;;
78871;SDS011;68247;43.514;1.502;2024-01-11T12:20:45;17.73;;;10.50;;
78871;SDS011;68247;43.514;1.502;2024-01-11T12:23:11;18.63;;;10.83;;
78871;SDS011;68247;43.514;1.502;2024-01-11T12:25:38;18.52;;;10.57;;
78871;SDS011;68247;43.514;1.502;2024-01-11T12:28:05;19.67;;;10.52;;
78871;SDS011;68247;43.514;1.502;2024-01-11T12:30:31;18.40;;;10.93;;
78871;SDS011;68247;43.514;1.502;2024-01-11T12:32:56;20.98;;;11.27;;
78871;SDS011;68247;43.514;1.502;2024-01-11T12:35:22;21.55;;;11.88;;
78871;SDS011;68247;43.514;1.502;2024-01-11T12:40:32;22.13;;;12.65;;
78871;SDS011;68247;43.514;1.502;2024-01-11T12:43:05;19.08;;;11.65;;
78871;SDS011;68247;43.514;1.502;2024-01-11T12:45:32;20.92;;;11.27;;
78871;SDS011;68247;43.514;1.502;2024-01-11T12:48:01;20.47;;;11.10;;
78871;SDS011;68247;43.514;1.502;2024-01-11T12:50:28;19.77;;;11.68;;
78871;SDS011;68247;43.514;1.502;2024-01-11T12:53:10;19.70;;;10.43;;
78871;SDS011;68247;43.514;1.502;2024-01-11T12:55:45;20.00;;;10.80;;
78871;SDS011;68247;43.514;1.502;2024-01-11T12:58:12;17.73;;;10.40;;
78871;SDS011;68247;43.514;1.502;2024-01-11T13:00:37;20.00;;;11.30;;
78871;SDS011;68247;43.514;1.502;2024-01-11T13:03:04;19.73;;;10.97;;
78871;SDS011;68247;43.514;1.502;2024-01-11T13:05:32;21.70;;;11.38;;
78871;SDS011;68247;43.514;1.502;2024-01-11T13:08:00;18.63;;;11.07;;
78871;SDS011;68247;43.514;1.502;2024-01-11T13:10:35;19.55;;;11.35;;
78871;SDS011;68247;43.514;1.502;2024-01-11T13:13:01;18.58;;;10.93;;
78871;SDS011;68247;43.514;1.502;2024-01-11T13:15:27;19.27;;;11.87;;
78871;SDS011;68247;43.514;1.502;2024-01-11T13:18:01;18.70;;;11.38;;
78871;SDS011;68247;43.514;1.502;2024-01-11T13:20:27;17.83;;;11.00;;
78871;SDS011;68247;43.514;1.502;2024-01-11T13:23:11;17.95;;;11.05;;
78871;SDS011;68247;43.514;1.502;2024-01-11T13:25:36;19.42;;;11.05;;
78871;SDS011;68247;43.514;1.502;2024-01-11T13:28:02;19.83;;;11.10;;
78871;SDS011;68247;43.514;1.502;2024-01-11T13:30:27;17.20;;;10.82;;
78871;SDS011;68247;43.514;1.502;2024-01-11T13:32:53;19.73;;;11.50;;
78871;SDS011;68247;43.514;1.502;2024-01-11T13:35:18;19.03;;;11.37;;
78871;SDS011;68247;43.514;1.502;2024-01-11T13:37:45;19.10;;;10.70;;
78871;SDS011;68247;43.514;1.502;2024-01-11T13:40:10;18.17;;;10.50;;
78871;SDS011;68247;43.514;1.502;2024-01-11T13:42:38;21.67;;;11.45;;
78871;SDS011;68247;43.514;1.502;2024-01-11T13:45:04;20.47;;;11.37;;
78871;SDS011;68247;43.514;1.502;2024-01-11T13:47:32;21.73;;;11.90;;
78871;SDS011;68247;43.514;1.502;2024-01-11T13:49:57;19.30;;;11.23;;
78871;SDS011;68247;43.514;1.502;2024-01-11T13:52:23;20.30;;;11.17;;
78871;SDS011;68247;43.514;1.502;2024-01-11T13:54:48;20.70;;;11.43;;
78871;SDS011;68247;43.514;1.502;2024-01-11T13:57:14;20.80;;;11.38;;
78871;SDS011;68247;43.514;1.502;2024-01-11T13:59:39;19.00;;;11.43;;
78871;SDS011;68247;43.514;1.502;2024-01-11T14:02:04;21.50;;;11.77;;
78871;SDS011;68247;43.514;1.502;2024-01-11T14:04:30;19.23;;;11.40;;
78871;SDS011;68247;43.514;1.502;2024-01-11T14:06:55;21.25;;;11.85;;
78871;SDS011;68247;43.514;1.502;2024-01-11T14:09:20;18.50;;;10.68;;
78871;SDS011;68247;43.514;1.502;2024-01-11T14:11:47;20.90;;;12.43;;
78871;SDS011;68247;43.514;1.502;2024-01-11T14:14:13;18.48;;;10.95;;
78871;SDS011;68247;43.514;1.502;2024-01-11T14:16:39;20.92;;;11.73;;
78871;SDS011;68247;43.514;1.502;2024-01-11T14:19:04;22.27;;;11.60;;
78871;SDS011;68247;43.514;1.502;2024-01-11T14:21:30;21.00;;;12.00;;
78871;SDS011;68247;43.514;1.502;2024-01-11T14:23:55;18.80;;;10.83;;